This is the latest recevied weather packets stored in our database for station/object KG4GJX. If no packets are shown the sender has not sent any weather packets the latest 10 day(s).
| Time | Temp. | Humidity | Pressure | Rain* | Wind** | Luminosity | Snow |
|---|---|---|---|---|---|---|---|
| 1777865724 | 9.44° C | 92% | 1017.2 hPa | 0 mm | - | - | - |
| 1777865061 | 10° C | 91% | 1016.9 hPa | 0 mm | - | - | - |
| 1777864398 | 10° C | 89% | 1016.9 hPa | 0 mm | - | - | - |
| 1777863736 | 10° C | 88% | 1016.9 hPa | 0 mm | - | - | - |
| 1777863074 | 10° C | 87% | 1016.5 hPa | 0 mm | - | - | - |
| 1777862411 | 10° C | 86% | 1016.5 hPa | 0 mm | - | - | - |
| 1777861748 | 10° C | 87% | 1016.5 hPa | 0 mm | - | - | - |
| 1777861086 | 10° C | 85% | 1016.5 hPa | 0 mm | - | - | - |
| 1777860424 | 10.56° C | 84% | 1016.5 hPa | 0 mm | - | - | - |
| 1777859760 | 10.56° C | 82% | 1016.5 hPa | 0 mm | - | - | - |
| 1777859073 | 11.11° C | 82% | 1016.5 hPa | 0 mm | - | - | - |
| 1777858411 | 11.11° C | 80% | 1016.2 hPa | 0 mm | - | - | - |
| 1777857088 | 11.67° C | 79% | 1016.2 hPa | 0 mm | - | - | - |
| 1777856425 | 12.22° C | 77% | 1016.2 hPa | 0 mm | - | - | - |
| 1777855764 | 12.78° C | 76% | 1016.2 hPa | 0 mm | - | - | - |
| 1777855099 | 13.33° C | 73% | 1015.9 hPa | 0 mm | - | - | - |
| 1777854437 | 14.44° C | 70% | 1015.9 hPa | 0 mm | - | - | - |
| 1777853777 | 15.56° C | 63% | 1015.9 hPa | 0 mm | - | - | - |
| 1777853104 | 16.67° C | 59% | 1015.9 hPa | 0 mm | - | - | - |
| 1777852442 | 18.33° C | 54% | 1015.9 hPa | 0 mm | - | - | - |
| 1777851780 | 20° C | 49% | 1016.2 hPa | 0 mm | - | - | - |
| 1777851117 | 21.11° C | 45% | 1016.2 hPa | 0 mm | - | - | - |
| 1777850455 | 20.56° C | 45% | 1016.2 hPa | 0 mm | - | - | - |
| 1777849792 | 20.56° C | 44% | 1016.2 hPa | 0 mm | - | - | - |
| 1777849130 | 20.56° C | 45% | 1016.5 hPa | 0 mm | - | - | - |
* Rain latest hour (hover to see other rain measurements)
** Current wind speed in m/s (hover to see current wind gust speed)